sensor_id;sensor_type;location;lat;lon;timestamp;pressure;altitude;pressure_sealevel;temperature;humidity
3260;BME280;22469;48.150;14.004;2023-03-25T00:00:15;97480.72;;;13.75;64.36
3260;BME280;22469;48.150;14.004;2023-03-25T00:02:46;97483.72;;;13.68;64.55
3260;BME280;22469;48.150;14.004;2023-03-25T00:05:18;97477.47;;;13.72;65.01
3260;BME280;22469;48.150;14.004;2023-03-25T00:07:48;97477.97;;;13.79;64.42
3260;BME280;22469;48.150;14.004;2023-03-25T00:10:17;97467.66;;;13.94;64.03
3260;BME280;22469;48.150;14.004;2023-03-25T00:12:45;97476.72;;;13.70;64.77
3260;BME280;22469;48.150;14.004;2023-03-25T00:15:12;97478.50;;;13.85;64.25
3260;BME280;22469;48.150;14.004;2023-03-25T00:17:43;97477.81;;;13.97;63.89
3260;BME280;22469;48.150;14.004;2023-03-25T00:20:11;97482.53;;;13.73;65.06
3260;BME280;22469;48.150;14.004;2023-03-25T00:22:39;97479.28;;;13.54;65.23
3260;BME280;22469;48.150;14.004;2023-03-25T00:25:13;97481.66;;;13.74;64.65
3260;BME280;22469;48.150;14.004;2023-03-25T00:27:46;97469.59;;;13.42;65.30
3260;BME280;22469;48.150;14.004;2023-03-25T00:30:15;97468.34;;;13.16;66.26
3260;BME280;22469;48.150;14.004;2023-03-25T00:32:44;97483.97;;;12.95;67.13
3260;BME280;22469;48.150;14.004;2023-03-25T00:35:16;97474.41;;;13.15;67.15
3260;BME280;22469;48.150;14.004;2023-03-25T00:37:50;97476.91;;;13.16;66.41
3260;BME280;22469;48.150;14.004;2023-03-25T00:40:28;97470.47;;;13.25;66.42
3260;BME280;22469;48.150;14.004;2023-03-25T00:43:03;97480.16;;;13.20;66.34
3260;BME280;22469;48.150;14.004;2023-03-25T00:45:31;97476.47;;;13.25;66.04
3260;BME280;22469;48.150;14.004;2023-03-25T00:47:59;97468.44;;;13.14;66.25
3260;BME280;22469;48.150;14.004;2023-03-25T00:50:26;97477.19;;;13.45;65.72
3260;BME280;22469;48.150;14.004;2023-03-25T00:52:53;97478.16;;;13.26;66.04
3260;BME280;22469;48.150;14.004;2023-03-25T00:55:20;97473.41;;;13.68;64.73
3260;BME280;22469;48.150;14.004;2023-03-25T00:57:47;97475.81;;;13.87;64.11
3260;BME280;22469;48.150;14.004;2023-03-25T01:00:17;97487.28;;;13.65;63.73
3260;BME280;22469;48.150;14.004;2023-03-25T01:02:45;97490.59;;;13.67;64.25
3260;BME280;22469;48.150;14.004;2023-03-25T01:05:15;97483.22;;;13.77;64.34
3260;BME280;22469;48.150;14.004;2023-03-25T01:07:42;97489.69;;;13.68;64.39
3260;BME280;22469;48.150;14.004;2023-03-25T01:10:10;97485.28;;;13.70;64.33
3260;BME280;22469;48.150;14.004;2023-03-25T01:12:37;97486.19;;;13.69;63.93
3260;BME280;22469;48.150;14.004;2023-03-25T01:15:04;97484.09;;;13.60;64.04
3260;BME280;22469;48.150;14.004;2023-03-25T01:17:32;97490.03;;;13.78;63.70
3260;BME280;22469;48.150;14.004;2023-03-25T01:19:59;97501.81;;;13.16;65.04
3260;BME280;22469;48.150;14.004;2023-03-25T01:22:26;97495.69;;;13.36;65.04
3260;BME280;22469;48.150;14.004;2023-03-25T01:24:54;97495.25;;;13.61;63.66
3260;BME280;22469;48.150;14.004;2023-03-25T01:27:21;97499.53;;;13.44;64.29
3260;BME280;22469;48.150;14.004;2023-03-25T01:29:50;97486.44;;;13.32;64.81
3260;BME280;22469;48.150;14.004;2023-03-25T01:32:17;97487.50;;;13.45;64.29
3260;BME280;22469;48.150;14.004;2023-03-25T01:34:44;97483.56;;;13.71;63.41
3260;BME280;22469;48.150;14.004;2023-03-25T01:37:12;97487.22;;;13.83;62.94
3260;BME280;22469;48.150;14.004;2023-03-25T01:39:39;97481.31;;;13.96;62.31
3260;BME280;22469;48.150;14.004;2023-03-25T01:42:06;97471.56;;;14.02;62.19
3260;BME280;22469;48.150;14.004;2023-03-25T01:47:38;97460.25;;;14.04;61.64
3260;BME280;22469;48.150;14.004;2023-03-25T01:50:06;97465.34;;;13.90;62.42
3260;BME280;22469;48.150;14.004;2023-03-25T01:52:34;97454.34;;;13.70;62.80
3260;BME280;22469;48.150;14.004;2023-03-25T01:55:01;97463.34;;;13.79;62.73
3260;BME280;22469;48.150;14.004;2023-03-25T01:57:28;97462.50;;;13.63;62.94
3260;BME280;22469;48.150;14.004;2023-03-25T01:59:57;97455.91;;;13.57;64.03
3260;BME280;22469;48.150;14.004;2023-03-25T02:02:24;97453.84;;;13.64;62.89
3260;BME280;22469;48.150;14.004;2023-03-25T02:05:06;97448.53;;;13.67;63.14
3260;BME280;22469;48.150;14.004;2023-03-25T02:07:47;97449.22;;;13.86;62.31
3260;BME280;22469;48.150;14.004;2023-03-25T02:10:16;97443.88;;;13.73;62.57
3260;BME280;22469;48.150;14.004;2023-03-25T02:12:44;97446.72;;;13.85;61.95
3260;BME280;22469;48.150;14.004;2023-03-25T02:15:14;97440.56;;;13.87;61.95
3260;BME280;22469;48.150;14.004;2023-03-25T02:32:35;97449.13;;;13.88;61.94
3260;BME280;22469;48.150;14.004;2023-03-25T02:41:07;97440.97;;;13.80;62.20
3260;BME280;22469;48.150;14.004;2023-03-25T02:43:50;97436.75;;;13.79;62.28
3260;BME280;22469;48.150;14.004;2023-03-25T02:46:20;97450.81;;;13.89;62.06
3260;BME280;22469;48.150;14.004;2023-03-25T02:48:59;97451.31;;;13.95;61.79
3260;BME280;22469;48.150;14.004;2023-03-25T02:51:37;97440.72;;;14.00;61.71
3260;BME280;22469;48.150;14.004;2023-03-25T02:54:18;97442.47;;;13.99;61.43
3260;BME280;22469;48.150;14.004;2023-03-25T02:56:48;97441.16;;;13.92;61.63
3260;BME280;22469;48.150;14.004;2023-03-25T02:59:18;97439.22;;;13.80;61.31
3260;BME280;22469;48.150;14.004;2023-03-25T03:01:47;97441.47;;;13.55;62.23
3260;BME280;22469;48.150;14.004;2023-03-25T03:04:16;97437.13;;;13.55;62.59
3260;BME280;22469;48.150;14.004;2023-03-25T03:06:43;97433.63;;;13.23;62.52
3260;BME280;22469;48.150;14.004;2023-03-25T03:09:25;97426.97;;;13.19;62.26
3260;BME280;22469;48.150;14.004;2023-03-25T03:15:23;97436.19;;;13.24;61.86
3260;BME280;22469;48.150;14.004;2023-03-25T03:19:00;97435.88;;;13.13;62.29
3260;BME280;22469;48.150;14.004;2023-03-25T03:21:22;97436.69;;;13.31;61.40
3260;BME280;22469;48.150;14.004;2023-03-25T03:24:11;97428.56;;;13.39;61.08
3260;BME280;22469;48.150;14.004;2023-03-25T03:26:56;97431.72;;;13.11;61.35
3260;BME280;22469;48.150;14.004;2023-03-25T03:29:38;97442.88;;;13.44;60.78
3260;BME280;22469;48.150;14.004;2023-03-25T03:34:56;97448.91;;;13.27;61.01
3260;BME280;22469;48.150;14.004;2023-03-25T03:37:31;97449.09;;;13.23;60.68
3260;BME280;22469;48.150;14.004;2023-03-25T03:40:05;97453.06;;;13.30;60.80
3260;BME280;22469;48.150;14.004;2023-03-25T03:42:58;97444.00;;;13.39;59.86
3260;BME280;22469;48.150;14.004;2023-03-25T03:48:14;97446.94;;;13.48;59.77
3260;BME280;22469;48.150;14.004;2023-03-25T03:50:51;97447.34;;;13.57;59.48
3260;BME280;22469;48.150;14.004;2023-03-25T03:53:27;97453.34;;;13.57;59.36
3260;BME280;22469;48.150;14.004;2023-03-25T03:56:12;97456.50;;;13.62;59.25
3260;BME280;22469;48.150;14.004;2023-03-25T03:58:45;97447.78;;;13.65;59.28
3260;BME280;22469;48.150;14.004;2023-03-25T04:04:25;97456.88;;;13.39;59.53
3260;BME280;22469;48.150;14.004;2023-03-25T04:07:39;97460.78;;;13.30;59.22
3260;BME280;22469;48.150;14.004;2023-03-25T04:13:02;97471.06;;;12.26;61.61
3260;BME280;22469;48.150;14.004;2023-03-25T04:15:32;97464.69;;;12.52;61.48
3260;BME280;22469;48.150;14.004;2023-03-25T04:17:59;97459.38;;;12.55;60.70
3260;BME280;22469;48.150;14.004;2023-03-25T04:20:28;97462.38;;;12.28;61.08
3260;BME280;22469;48.150;14.004;2023-03-25T04:23:00;97455.81;;;12.57;60.21
3260;BME280;22469;48.150;14.004;2023-03-25T04:25:27;97466.72;;;12.63;60.72
3260;BME280;22469;48.150;14.004;2023-03-25T04:27:57;97460.34;;;12.52;60.87
3260;BME280;22469;48.150;14.004;2023-03-25T04:30:27;97467.56;;;12.63;60.44
3260;BME280;22469;48.150;14.004;2023-03-25T04:32:54;97468.06;;;12.87;59.63
3260;BME280;22469;48.150;14.004;2023-03-25T04:35:23;97462.53;;;12.95;59.61
3260;BME280;22469;48.150;14.004;2023-03-25T04:37:51;97465.56;;;12.68;60.17
3260;BME280;22469;48.150;14.004;2023-03-25T04:40:24;97474.44;;;12.97;59.10
3260;BME280;22469;48.150;14.004;2023-03-25T04:42:51;97476.34;;;12.59;60.09
3260;BME280;22469;48.150;14.004;2023-03-25T04:45:18;97468.22;;;12.84;59.37
3260;BME280;22469;48.150;14.004;2023-03-25T04:47:48;97468.06;;;12.52;60.08
3260;BME280;22469;48.150;14.004;2023-03-25T04:50:25;97476.03;;;12.65;60.14
3260;BME280;22469;48.150;14.004;2023-03-25T04:52:55;97480.78;;;12.38;60.25
3260;BME280;22469;48.150;14.004;2023-03-25T04:55:28;97472.44;;;12.33;60.32
3260;BME280;22469;48.150;14.004;2023-03-25T04:57:55;97464.97;;;12.46;59.74
3260;BME280;22469;48.150;14.004;2023-03-25T05:00:24;97473.88;;;12.39;59.78
3260;BME280;22469;48.150;14.004;2023-03-25T05:02:53;97474.88;;;12.53;59.37
3260;BME280;22469;48.150;14.004;2023-03-25T05:05:23;97471.09;;;12.61;58.70
3260;BME280;22469;48.150;14.004;2023-03-25T05:07:53;97473.72;;;12.24;59.27
3260;BME280;22469;48.150;14.004;2023-03-25T05:10:23;97471.94;;;12.78;58.55
3260;BME280;22469;48.150;14.004;2023-03-25T05:13:00;97461.25;;;13.03;57.54
3260;BME280;22469;48.150;14.004;2023-03-25T05:15:30;97458.88;;;13.34;56.62
3260;BME280;22469;48.150;14.004;2023-03-25T05:18:00;97473.06;;;13.08;56.84
3260;BME280;22469;48.150;14.004;2023-03-25T05:20:28;97468.50;;;12.95;57.22
3260;BME280;22469;48.150;14.004;2023-03-25T05:22:56;97472.69;;;12.63;58.10
3260;BME280;22469;48.150;14.004;2023-03-25T05:25:24;97467.25;;;12.69;58.51
3260;BME280;22469;48.150;14.004;2023-03-25T05:27:51;97473.50;;;12.46;58.79
3260;BME280;22469;48.150;14.004;2023-03-25T05:30:17;97484.78;;;12.61;58.83
3260;BME280;22469;48.150;14.004;2023-03-25T05:32:45;97477.16;;;12.77;58.56
3260;BME280;22469;48.150;14.004;2023-03-25T05:35:22;97489.38;;;12.37;58.90
3260;BME280;22469;48.150;14.004;2023-03-25T05:37:49;97478.25;;;12.00;59.91
3260;BME280;22469;48.150;14.004;2023-03-25T05:40:17;97487.50;;;12.04;60.19
3260;BME280;22469;48.150;14.004;2023-03-25T05:42:44;97484.81;;;12.25;59.51
3260;BME280;22469;48.150;14.004;2023-03-25T05:45:15;97490.84;;;12.24;58.97
3260;BME280;22469;48.150;14.004;2023-03-25T05:47:42;97479.63;;;12.61;57.77
3260;BME280;22469;48.150;14.004;2023-03-25T05:50:10;97480.72;;;12.57;57.44
3260;BME280;22469;48.150;14.004;2023-03-25T05:52:37;97487.97;;;12.13;58.82
3260;BME280;22469;48.150;14.004;2023-03-25T05:55:15;97483.72;;;12.12;58.57
3260;BME280;22469;48.150;14.004;2023-03-25T05:57:46;97483.47;;;12.18;58.47
3260;BME280;22469;48.150;14.004;2023-03-25T06:00:15;97495.81;;;12.28;57.94
3260;BME280;22469;48.150;14.004;2023-03-25T06:02:45;97492.50;;;12.07;59.35
3260;BME280;22469;48.150;14.004;2023-03-25T06:05:15;97496.59;;;11.93;59.50
3260;BME280;22469;48.150;14.004;2023-03-25T06:07:44;97504.31;;;11.72;60.52
3260;BME280;22469;48.150;14.004;2023-03-25T06:10:14;97505.72;;;11.79;59.76
3260;BME280;22469;48.150;14.004;2023-03-25T06:12:44;97516.84;;;11.80;59.70
3260;BME280;22469;48.150;14.004;2023-03-25T06:15:15;97512.56;;;11.99;59.15
3260;BME280;22469;48.150;14.004;2023-03-25T06:17:59;97517.53;;;11.65;59.65
3260;BME280;22469;48.150;14.004;2023-03-25T06:20:27;97519.03;;;11.89;59.49
3260;BME280;22469;48.150;14.004;2023-03-25T06:22:54;97520.31;;;12.17;58.74
3260;BME280;22469;48.150;14.004;2023-03-25T06:25:21;97522.13;;;11.77;59.38
3260;BME280;22469;48.150;14.004;2023-03-25T06:27:49;97530.84;;;11.93;59.72
3260;BME280;22469;48.150;14.004;2023-03-25T06:30:19;97527.88;;;11.82;59.49
3260;BME280;22469;48.150;14.004;2023-03-25T06:32:47;97524.53;;;11.61;60.00
3260;BME280;22469;48.150;14.004;2023-03-25T06:35:18;97523.34;;;11.89;58.98
3260;BME280;22469;48.150;14.004;2023-03-25T06:37:47;97524.41;;;11.64;58.67
3260;BME280;22469;48.150;14.004;2023-03-25T06:40:15;97516.84;;;11.80;58.80
3260;BME280;22469;48.150;14.004;2023-03-25T06:42:42;97522.84;;;11.99;57.41
3260;BME280;22469;48.150;14.004;2023-03-25T06:45:10;97518.75;;;11.95;57.76
3260;BME280;22469;48.150;14.004;2023-03-25T06:47:38;97528.53;;;12.06;57.46
3260;BME280;22469;48.150;14.004;2023-03-25T06:50:06;97533.19;;;12.36;57.46
3260;BME280;22469;48.150;14.004;2023-03-25T06:52:33;97537.06;;;12.06;57.37
3260;BME280;22469;48.150;14.004;2023-03-25T06:55:01;97538.19;;;12.39;57.16
3260;BME280;22469;48.150;14.004;2023-03-25T06:57:28;97533.09;;;12.73;56.52
3260;BME280;22469;48.150;14.004;2023-03-25T06:59:55;97533.00;;;12.02;57.79
3260;BME280;22469;48.150;14.004;2023-03-25T07:02:22;97543.94;;;12.44;58.20
3260;BME280;22469;48.150;14.004;2023-03-25T07:04:49;97541.69;;;12.55;57.74
3260;BME280;22469;48.150;14.004;2023-03-25T07:07:16;97537.34;;;12.38;58.20
3260;BME280;22469;48.150;14.004;2023-03-25T07:09:43;97536.44;;;12.39;58.33
3260;BME280;22469;48.150;14.004;2023-03-25T07:12:10;97538.88;;;12.42;58.56
3260;BME280;22469;48.150;14.004;2023-03-25T07:14:37;97533.13;;;12.54;57.32
3260;BME280;22469;48.150;14.004;2023-03-25T07:17:04;97524.75;;;12.68;57.91
3260;BME280;22469;48.150;14.004;2023-03-25T07:19:32;97521.31;;;12.50;57.29
3260;BME280;22469;48.150;14.004;2023-03-25T07:21:59;97526.31;;;12.53;57.25
3260;BME280;22469;48.150;14.004;2023-03-25T07:24:26;97522.66;;;12.40;56.99
3260;BME280;22469;48.150;14.004;2023-03-25T07:26:53;97522.06;;;12.35;57.63
3260;BME280;22469;48.150;14.004;2023-03-25T07:29:20;97513.28;;;12.39;57.56
3260;BME280;22469;48.150;14.004;2023-03-25T07:31:47;97507.13;;;12.61;57.54
3260;BME280;22469;48.150;14.004;2023-03-25T07:34:14;97503.97;;;12.73;56.73
3260;BME280;22469;48.150;14.004;2023-03-25T07:36:41;97500.84;;;13.01;55.80
3260;BME280;22469;48.150;14.004;2023-03-25T07:39:08;97506.06;;;13.17;55.02
3260;BME280;22469;48.150;14.004;2023-03-25T07:41:35;97508.56;;;13.36;54.73
3260;BME280;22469;48.150;14.004;2023-03-25T07:44:03;97506.56;;;13.74;53.11
3260;BME280;22469;48.150;14.004;2023-03-25T07:46:30;97504.09;;;13.39;51.82
3260;BME280;22469;48.150;14.004;2023-03-25T07:48:57;97504.31;;;13.17;51.90
3260;BME280;22469;48.150;14.004;2023-03-25T07:51:24;97524.59;;;13.58;50.95
3260;BME280;22469;48.150;14.004;2023-03-25T07:53:51;97513.66;;;13.02;51.78
3260;BME280;22469;48.150;14.004;2023-03-25T07:56:18;97520.44;;;13.21;52.42
3260;BME280;22469;48.150;14.004;2023-03-25T07:58:46;97514.88;;;13.30;52.55
3260;BME280;22469;48.150;14.004;2023-03-25T08:01:15;97511.91;;;13.38;51.89
3260;BME280;22469;48.150;14.004;2023-03-25T08:03:42;97526.53;;;13.37;51.54
3260;BME280;22469;48.150;14.004;2023-03-25T08:06:09;97531.88;;;13.15;50.83
3260;BME280;22469;48.150;14.004;2023-03-25T08:08:36;97521.81;;;13.11;51.34
3260;BME280;22469;48.150;14.004;2023-03-25T08:11:03;97516.44;;;13.33;50.97
3260;BME280;22469;48.150;14.004;2023-03-25T08:13:30;97523.88;;;13.39;51.02
3260;BME280;22469;48.150;14.004;2023-03-25T08:15:57;97519.22;;;13.45;50.27
3260;BME280;22469;48.150;14.004;2023-03-25T08:18:25;97532.50;;;13.38;50.38
3260;BME280;22469;48.150;14.004;2023-03-25T08:20:52;97537.09;;;13.48;50.15
3260;BME280;22469;48.150;14.004;2023-03-25T08:23:20;97550.72;;;13.84;49.58
3260;BME280;22469;48.150;14.004;2023-03-25T08:25:49;97543.47;;;13.59;49.89
3260;BME280;22469;48.150;14.004;2023-03-25T08:28:19;97548.84;;;13.54;50.18
3260;BME280;22469;48.150;14.004;2023-03-25T08:30:51;97557.50;;;13.36;48.80
3260;BME280;22469;48.150;14.004;2023-03-25T08:33:23;97557.44;;;13.37;49.83
3260;BME280;22469;48.150;14.004;2023-03-25T08:36:00;97554.22;;;13.15;49.15
3260;BME280;22469;48.150;14.004;2023-03-25T08:38:28;97556.03;;;13.13;49.50
3260;BME280;22469;48.150;14.004;2023-03-25T08:41:01;97551.97;;;13.26;49.73
3260;BME280;22469;48.150;14.004;2023-03-25T08:43:29;97542.19;;;13.33;48.51
3260;BME280;22469;48.150;14.004;2023-03-25T08:45:56;97543.44;;;13.92;48.59
3260;BME280;22469;48.150;14.004;2023-03-25T08:48:23;97533.63;;;13.83;47.64
3260;BME280;22469;48.150;14.004;2023-03-25T08:50:50;97539.94;;;13.93;47.76
3260;BME280;22469;48.150;14.004;2023-03-25T08:53:17;97546.16;;;13.73;47.12
3260;BME280;22469;48.150;14.004;2023-03-25T08:55:44;97547.31;;;13.83;46.61
3260;BME280;22469;48.150;14.004;2023-03-25T08:58:11;97549.69;;;14.04;47.05
3260;BME280;22469;48.150;14.004;2023-03-25T09:00:38;97552.69;;;13.63;46.42
3260;BME280;22469;48.150;14.004;2023-03-25T09:03:05;97554.88;;;13.70;46.36
3260;BME280;22469;48.150;14.004;2023-03-25T09:05:34;97545.69;;;13.82;46.48
3260;BME280;22469;48.150;14.004;2023-03-25T09:08:04;97542.59;;;14.39;46.58
3260;BME280;22469;48.150;14.004;2023-03-25T09:10:32;97542.03;;;14.50;45.12
3260;BME280;22469;48.150;14.004;2023-03-25T09:13:01;97541.75;;;14.86;44.31
3260;BME280;22469;48.150;14.004;2023-03-25T09:15:28;97533.00;;;14.88;43.80
3260;BME280;22469;48.150;14.004;2023-03-25T09:17:56;97555.19;;;15.07;44.02
3260;BME280;22469;48.150;14.004;2023-03-25T09:20:24;97549.94;;;15.08;42.70
3260;BME280;22469;48.150;14.004;2023-03-25T09:22:51;97546.59;;;15.06;42.37
3260;BME280;22469;48.150;14.004;2023-03-25T09:25:18;97543.53;;;15.30;42.68
3260;BME280;22469;48.150;14.004;2023-03-25T09:27:45;97536.66;;;15.59;42.49
3260;BME280;22469;48.150;14.004;2023-03-25T09:30:13;97529.81;;;15.72;41.36
3260;BME280;22469;48.150;14.004;2023-03-25T09:32:41;97534.72;;;15.77;41.18
3260;BME280;22469;48.150;14.004;2023-03-25T09:35:10;97546.41;;;15.39;42.31
3260;BME280;22469;48.150;14.004;2023-03-25T09:37:37;97552.91;;;15.16;40.83
3260;BME280;22469;48.150;14.004;2023-03-25T09:40:05;97553.84;;;15.15;40.78
3260;BME280;22469;48.150;14.004;2023-03-25T09:45:34;97518.16;;;15.22;41.07
3260;BME280;22469;48.150;14.004;2023-03-25T09:50:48;97537.91;;;15.52;39.46
3260;BME280;22469;48.150;14.004;2023-03-25T09:56:10;97527.84;;;15.61;40.22
3260;BME280;22469;48.150;14.004;2023-03-25T09:58:47;97511.41;;;15.34;38.16
3260;BME280;22469;48.150;14.004;2023-03-25T10:10:28;97516.34;;;15.81;38.41
3260;BME280;22469;48.150;14.004;2023-03-25T10:22:27;97514.75;;;15.79;38.58
3260;BME280;22469;48.150;14.004;2023-03-25T10:25:01;97518.66;;;16.00;38.02
3260;BME280;22469;48.150;14.004;2023-03-25T10:27:39;97507.28;;;15.88;38.33
3260;BME280;22469;48.150;14.004;2023-03-25T10:35:21;97516.97;;;15.85;37.44
3260;BME280;22469;48.150;14.004;2023-03-25T10:37:53;97516.22;;;15.54;37.71
3260;BME280;22469;48.150;14.004;2023-03-25T10:40:34;97515.69;;;15.63;38.38
3260;BME280;22469;48.150;14.004;2023-03-25T10:45:51;97500.19;;;15.49;38.47
3260;BME280;22469;48.150;14.004;2023-03-25T10:48:27;97511.22;;;15.37;37.57
3260;BME280;22469;48.150;14.004;2023-03-25T10:51:05;97501.72;;;15.52;39.02
3260;BME280;22469;48.150;14.004;2023-03-25T10:53:36;97502.94;;;15.75;38.21
3260;BME280;22469;48.150;14.004;2023-03-25T10:58:54;97505.94;;;16.10;37.73
3260;BME280;22469;48.150;14.004;2023-03-25T11:01:48;97496.63;;;16.07;37.62
3260;BME280;22469;48.150;14.004;2023-03-25T11:04:20;97475.22;;;15.91;37.15
3260;BME280;22469;48.150;14.004;2023-03-25T11:06:53;97484.44;;;15.24;37.70
3260;BME280;22469;48.150;14.004;2023-03-25T11:09:28;97484.81;;;15.17;39.00
3260;BME280;22469;48.150;14.004;2023-03-25T11:12:00;97462.34;;;14.89;39.39
3260;BME280;22469;48.150;14.004;2023-03-25T11:14:38;97465.50;;;14.80;39.94
3260;BME280;22469;48.150;14.004;2023-03-25T11:17:19;97459.97;;;15.01;38.67
3260;BME280;22469;48.150;14.004;2023-03-25T11:22:21;97456.59;;;15.14;40.10
3260;BME280;22469;48.150;14.004;2023-03-25T11:24:58;97451.13;;;15.05;39.60
3260;BME280;22469;48.150;14.004;2023-03-25T11:27:29;97446.63;;;15.23;40.63
3260;BME280;22469;48.150;14.004;2023-03-25T11:30:00;97452.31;;;15.85;39.38
3260;BME280;22469;48.150;14.004;2023-03-25T11:32:39;97440.59;;;16.21;39.48
3260;BME280;22469;48.150;14.004;2023-03-25T11:35:22;97443.72;;;16.66;38.48
3260;BME280;22469;48.150;14.004;2023-03-25T11:37:57;97437.31;;;16.31;38.25
3260;BME280;22469;48.150;14.004;2023-03-25T11:40:26;97442.63;;;16.43;38.06
3260;BME280;22469;48.150;14.004;2023-03-25T11:42:57;97441.44;;;16.21;37.46
3260;BME280;22469;48.150;14.004;2023-03-25T11:45:36;97430.97;;;16.23;37.76
3260;BME280;22469;48.150;14.004;2023-03-25T11:48:15;97431.84;;;16.36;38.36
3260;BME280;22469;48.150;14.004;2023-03-25T11:50:47;97436.19;;;16.08;37.90
3260;BME280;22469;48.150;14.004;2023-03-25T11:53:20;97434.34;;;15.83;38.12
3260;BME280;22469;48.150;14.004;2023-03-25T11:55:53;97422.50;;;15.65;37.94
3260;BME280;22469;48.150;14.004;2023-03-25T11:58:29;97421.00;;;15.90;38.67
3260;BME280;22469;48.150;14.004;2023-03-25T12:01:04;97425.78;;;15.96;38.75
3260;BME280;22469;48.150;14.004;2023-03-25T12:03:34;97420.81;;;15.93;38.16
3260;BME280;22469;48.150;14.004;2023-03-25T12:06:05;97422.19;;;15.98;38.05
3260;BME280;22469;48.150;14.004;2023-03-25T12:08:57;97412.91;;;16.35;37.27
3260;BME280;22469;48.150;14.004;2023-03-25T12:19:41;97406.91;;;16.35;37.32
3260;BME280;22469;48.150;14.004;2023-03-25T12:33:52;97382.53;;;16.77;37.91
3260;BME280;22469;48.150;14.004;2023-03-25T12:42:38;97379.88;;;15.99;39.05
3260;BME280;22469;48.150;14.004;2023-03-25T12:45:24;97378.97;;;16.13;39.41
3260;BME280;22469;48.150;14.004;2023-03-25T12:54:25;97379.34;;;15.94;38.98
3260;BME280;22469;48.150;14.004;2023-03-25T12:56:59;97358.16;;;16.02;39.56
3260;BME280;22469;48.150;14.004;2023-03-25T12:59:50;97365.00;;;16.55;38.75
3260;BME280;22469;48.150;14.004;2023-03-25T13:05:57;97345.63;;;16.61;38.87
3260;BME280;22469;48.150;14.004;2023-03-25T13:08:58;97345.13;;;16.94;38.26
3260;BME280;22469;48.150;14.004;2023-03-25T13:14:26;97342.13;;;17.00;36.89
3260;BME280;22469;48.150;14.004;2023-03-25T13:16:58;97328.97;;;17.03;37.87
3260;BME280;22469;48.150;14.004;2023-03-25T13:19:31;97337.38;;;16.81;37.08
3260;BME280;22469;48.150;14.004;2023-03-25T13:22:17;97328.56;;;16.84;37.01
3260;BME280;22469;48.150;14.004;2023-03-25T13:24:57;97331.69;;;16.76;37.09
3260;BME280;22469;48.150;14.004;2023-03-25T13:27:38;97320.97;;;16.43;37.10
3260;BME280;22469;48.150;14.004;2023-03-25T13:30:25;97314.97;;;16.42;36.84
3260;BME280;22469;48.150;14.004;2023-03-25T13:33:04;97323.97;;;16.37;38.01
3260;BME280;22469;48.150;14.004;2023-03-25T13:35:50;97314.88;;;16.56;37.65
3260;BME280;22469;48.150;14.004;2023-03-25T13:38:32;97315.06;;;16.53;37.55
3260;BME280;22469;48.150;14.004;2023-03-25T13:46:57;97320.13;;;15.90;38.78
3260;BME280;22469;48.150;14.004;2023-03-25T13:49:42;97342.50;;;15.91;39.90
3260;BME280;22469;48.150;14.004;2023-03-25T13:52:16;97326.91;;;16.05;41.92
3260;BME280;22469;48.150;14.004;2023-03-25T13:54:51;97333.66;;;16.07;42.04
3260;BME280;22469;48.150;14.004;2023-03-25T14:03:46;97320.78;;;16.46;39.00
3260;BME280;22469;48.150;14.004;2023-03-25T14:12:08;97306.88;;;16.34;39.78
3260;BME280;22469;48.150;14.004;2023-03-25T14:14:54;97314.13;;;16.67;39.11
3260;BME280;22469;48.150;14.004;2023-03-25T14:17:30;97311.44;;;16.56;38.98
3260;BME280;22469;48.150;14.004;2023-03-25T14:20:03;97306.47;;;16.40;38.53
3260;BME280;22469;48.150;14.004;2023-03-25T14:22:38;97321.59;;;16.46;38.62
3260;BME280;22469;48.150;14.004;2023-03-25T14:28:07;97315.50;;;15.95;39.79
3260;BME280;22469;48.150;14.004;2023-03-25T14:30:44;97309.34;;;16.23;37.17
3260;BME280;22469;48.150;14.004;2023-03-25T14:44:48;97319.81;;;15.81;36.93
3260;BME280;22469;48.150;14.004;2023-03-25T14:47:36;97319.13;;;15.92;37.16
3260;BME280;22469;48.150;14.004;2023-03-25T14:52:50;97321.13;;;16.01;37.49
3260;BME280;22469;48.150;14.004;2023-03-25T14:55:21;97330.44;;;16.04;37.62
3260;BME280;22469;48.150;14.004;2023-03-25T14:57:59;97317.50;;;16.17;37.29
3260;BME280;22469;48.150;14.004;2023-03-25T15:00:31;97330.66;;;16.14;37.14
3260;BME280;22469;48.150;14.004;2023-03-25T15:03:03;97324.00;;;15.97;37.51
3260;BME280;22469;48.150;14.004;2023-03-25T15:05:36;97333.56;;;15.82;37.73
3260;BME280;22469;48.150;14.004;2023-03-25T15:10:41;97329.91;;;15.57;38.14
3260;BME280;22469;48.150;14.004;2023-03-25T15:13:19;97328.19;;;15.85;37.73
3260;BME280;22469;48.150;14.004;2023-03-25T15:16:03;97338.63;;;15.56;37.84
3260;BME280;22469;48.150;14.004;2023-03-25T15:23:49;97340.06;;;15.60;37.61
3260;BME280;22469;48.150;14.004;2023-03-25T15:26:37;97332.97;;;15.91;37.08
3260;BME280;22469;48.150;14.004;2023-03-25T15:29:35;97338.66;;;15.83;36.70
3260;BME280;22469;48.150;14.004;2023-03-25T15:35:30;97345.88;;;15.64;37.42
3260;BME280;22469;48.150;14.004;2023-03-25T15:38:06;97344.22;;;15.07;37.06
3260;BME280;22469;48.150;14.004;2023-03-25T15:49:47;97416.19;;;15.42;39.36
3260;BME280;22469;48.150;14.004;2023-03-25T15:56:12;97450.31;;;14.60;48.19
3260;BME280;22469;48.150;14.004;2023-03-25T15:58:58;97445.56;;;14.52;48.65
3260;BME280;22469;48.150;14.004;2023-03-25T16:01:36;97462.94;;;14.03;48.13
3260;BME280;22469;48.150;14.004;2023-03-25T16:04:47;97454.84;;;14.25;47.89
3260;BME280;22469;48.150;14.004;2023-03-25T16:07:19;97453.44;;;14.19;47.38
3260;BME280;22469;48.150;14.004;2023-03-25T16:09:50;97456.09;;;14.02;48.59
3260;BME280;22469;48.150;14.004;2023-03-25T16:12:22;97463.59;;;14.06;48.13
3260;BME280;22469;48.150;14.004;2023-03-25T16:14:51;97457.13;;;13.99;48.87
3260;BME280;22469;48.150;14.004;2023-03-25T16:17:21;97444.81;;;13.88;48.82
3260;BME280;22469;48.150;14.004;2023-03-25T16:19:55;97437.00;;;14.06;48.39
3260;BME280;22469;48.150;14.004;2023-03-25T16:22:49;97440.72;;;14.16;48.92